Airport ICAO


11:56 UTC

25°C

Clear skies


An affordable passengers' Moving Map for your aircraft. Made for the iPad and the iPhone
More information here

LFLY Bron


Lyon FRANCE   VFR CAVOK


METAR LFLY 191130Z AUTO VRB01KT CAVOK 25/09 Q1026 NOSIG 0h26min

TAF LFLY 191100Z 1912/2012 04005KT CAVOK BECMG 2000/2002 18004KT 0h56min





NOTAMS

OPEN